Time;durP1;ratioP1;P1;durP2;ratioP2;P2;SDS_P1;SDS_P2;PMS_P1;PMS_P2;Temp;Humidity;BMP_temperature;BMP_pressure;BME280_temperature;BME280_humidity;BME280_pressure;Samples;Min_cycle;Max_cycle;Signal;HPM_P1;HPM_P2
2022/11/25 00:02:15;;;;;;;;;;;3.90;90.20;;;;;;5020683;28;19956;-76
2022/11/25 00:04:40;;;;;;;;;;;3.90;90.20;;;;;;5023805;28;20373;-77
2022/11/25 00:07:05;;;;;;;;;;;3.90;90.20;;;;;;5024314;28;19932;-76
2022/11/25 00:09:31;;;;;;;;;;;3.90;90.20;;;;;;5022583;28;19929;-76
2022/11/25 00:11:56;;;;;;;;;;;3.90;90.20;;;;;;5023673;28;19917;-77
2022/11/25 00:14:22;;;;;;;;;;;3.90;90.20;;;;;;5022676;28;19968;-76
2022/11/25 00:16:47;;;;;;;;;;;3.90;90.20;;;;;;5021172;28;20368;-77
2022/11/25 00:19:13;;;;;;;;;;;3.90;90.20;;;;;;5045847;28;19928;-76
2022/11/25 00:21:38;;;;;;;;;;;3.90;90.20;;;;;;5023168;28;19921;-76
2022/11/25 00:24:05;;;;;;;;;;;3.90;90.20;;;;;;5024820;28;19934;-77
2022/11/25 00:26:31;;;;;;;;;;;3.90;90.20;;;;;;5025066;28;19917;-76
2022/11/25 00:28:57;;;;;;;;;;;3.90;90.20;;;;;;5025871;28;19917;-76
2022/11/25 00:31:23;;;;;;;;;;;3.90;90.20;;;;;;5052982;28;19927;-75
2022/11/25 00:33:49;;;;;;;;;;;3.80;90.20;;;;;;5022473;28;19932;-76
2022/11/25 00:36:14;;;;;;;;;;;3.80;90.20;;;;;;5024830;28;19925;-76
2022/11/25 00:38:40;;;;;;;;;;;3.80;90.20;;;;;;5025333;28;20368;-76
2022/11/25 00:46:33;;;;;;;;;;;3.80;90.20;;;;;;5027919;28;19944;-76
2022/11/25 00:48:59;;;;;;;;;;;3.80;90.20;;;;;;5016549;28;19925;-77
2022/11/25 00:51:24;;;;;;;;;;;3.80;90.20;;;;;;5021196;28;20234;-76
2022/11/25 00:53:50;;;;;;;;;;;3.80;90.20;;;;;;5026178;28;19929;-75
2022/11/25 00:56:15;;;;;;;;;;;3.80;90.20;;;;;;5028793;28;19928;-76
2022/11/25 00:58:41;;;;;;;;;;;3.80;90.20;;;;;;5026173;28;19921;-75
2022/11/25 01:01:07;;;;;;;;;;;3.90;90.20;;;;;;5031302;28;19996;-76
2022/11/25 01:03:33;;;;;;;;;;;3.80;90.60;;;;;;5027818;28;19925;-75
2022/11/25 01:06:17;;;;;;;;;;;3.80;90.20;;;;;;5024961;28;19921;-76
2022/11/25 01:08:42;;;;;;;;;;;3.80;90.20;;;;;;5041897;28;19929;-76
2022/11/25 01:11:11;;;;;;;;;;;3.80;90.20;;;;;;5028560;28;19921;-75
2022/11/25 01:13:37;;;;;;;;;;;3.80;90.20;;;;;;5024579;28;19964;-76
2022/11/25 01:16:03;;;;;;;;;;;3.80;90.20;;;;;;5003500;28;19994;-76
2022/11/25 01:18:28;;;;;;;;;;;3.80;90.20;;;;;;5018881;28;19975;-76
2022/11/25 01:20:54;;;;;;;;;;;3.80;90.20;;;;;;5024146;28;19920;-77
2022/11/25 01:23:19;;;;;;;;;;;3.80;90.20;;;;;;5023892;28;19925;-76
2022/11/25 01:25:44;;;;;;;;;;;3.80;90.20;;;;;;5024665;28;20672;-75
2022/11/25 01:28:10;;;;;;;;;;;3.80;90.20;;;;;;5012883;28;19921;-76
2022/11/25 01:30:35;;;;;;;;;;;3.80;90.20;;;;;;5010821;28;19939;-77
2022/11/25 01:33:01;;;;;;;;;;;3.80;90.20;;;;;;5027361;28;20607;-76
2022/11/25 01:35:26;;;;;;;;;;;3.80;90.20;;;;;;5029978;28;19925;-77
2022/11/25 01:37:52;;;;;;;;;;;3.80;90.20;;;;;;5024722;28;20622;-77
2022/11/25 01:40:17;;;;;;;;;;;3.80;90.20;;;;;;5023547;28;19921;-77
2022/11/25 01:42:46;;;;;;;;;;;3.80;90.20;;;;;;5026928;28;20412;-76
2022/11/25 01:45:20;;;;;;;;;;;3.90;90.20;;;;;;5027696;28;19918;-76
2022/11/25 01:47:46;;;;;;;;;;;3.90;90.20;;;;;;5030796;28;19944;-76
2022/11/25 01:50:19;;;;;;;;;;;3.90;90.20;;;;;;5025551;28;20373;-76
2022/11/25 01:52:44;;;;;;;;;;;3.90;90.20;;;;;;5031640;28;20606;-76
2022/11/25 01:55:15;;;;;;;;;;;3.90;90.20;;;;;;5027198;28;20377;-76
2022/11/25 01:57:42;;;;;;;;;;;3.80;90.20;;;;;;5025941;28;20626;-76
2022/11/25 02:00:07;;;;;;;;;;;3.90;90.20;;;;;;5027927;28;19922;-75
2022/11/25 02:02:33;;;;;;;;;;;3.90;90.20;;;;;;5023065;28;21370;-76
2022/11/25 02:05:00;;;;;;;;;;;3.90;90.20;;;;;;5005710;28;20390;-77
2022/11/25 02:07:25;;;;;;;;;;;3.90;90.20;;;;;;5025891;28;20049;-76
2022/11/25 02:09:51;;;;;;;;;;;3.90;90.20;;;;;;5032138;28;20025;-76
2022/11/25 02:12:16;;;;;;;;;;;3.80;90.50;;;;;;5019051;28;20615;-76
2022/11/25 02:14:42;;;;;;;;;;;3.80;90.20;;;;;;5036700;28;19925;-76
2022/11/25 02:17:07;;;;;;;;;;;3.80;90.20;;;;;;5027009;28;19917;-77
2022/11/25 02:19:38;;;;;;;;;;;3.80;90.20;;;;;;5027294;28;19918;-76
2022/11/25 02:22:04;;;;;;;;;;;3.80;90.20;;;;;;5026017;28;19921;-76
2022/11/25 02:24:33;;;;;;;;;;;3.80;90.20;;;;;;5026492;28;19941;-77
2022/11/25 02:26:59;;;;;;;;;;;3.70;90.20;;;;;;5007581;28;19918;-76
2022/11/25 02:29:24;;;;;;;;;;;3.70;90.20;;;;;;5019185;28;19927;-76
2022/11/25 02:31:50;;;;;;;;;;;3.70;90.20;;;;;;5022201;28;19956;-76
2022/11/25 02:34:15;;;;;;;;;;;3.70;90.20;;;;;;5020151;28;20011;-76
2022/11/25 02:36:41;;;;;;;;;;;3.70;90.20;;;;;;5001502;28;19917;-75
2022/11/25 02:39:06;;;;;;;;;;;3.70;90.20;;;;;;5009557;28;19963;-76
2022/11/25 02:41:34;;;;;;;;;;;3.70;90.20;;;;;;5020839;28;19928;-76
2022/11/25 02:44:00;;;;;;;;;;;3.70;90.20;;;;;;5025312;28;19921;-76
2022/11/25 02:46:25;;;;;;;;;;;3.70;90.30;;;;;;5022002;28;20452;-76
2022/11/25 02:48:51;;;;;;;;;;;3.80;90.30;;;;;;5019101;28;19978;-76
2022/11/25 02:51:17;;;;;;;;;;;3.80;90.30;;;;;;5020008;28;19958;-76
2022/11/25 02:53:43;;;;;;;;;;;3.80;90.30;;;;;;5028107;28;20176;-76
2022/11/25 02:56:09;;;;;;;;;;;3.80;90.30;;;;;;5032037;28;20363;-76
2022/11/25 02:58:34;;;;;;;;;;;3.80;90.30;;;;;;5013799;28;20423;-76
2022/11/25 03:01:01;;;;;;;;;;;3.80;90.30;;;;;;5034006;28;20334;-76
2022/11/25 03:03:26;;;;;;;;;;;3.80;90.30;;;;;;5022551;28;19959;-77
2022/11/25 03:05:52;;;;;;;;;;;3.70;90.20;;;;;;5021605;28;20528;-76
2022/11/25 03:08:17;;;;;;;;;;;3.80;90.30;;;;;;5012300;28;19917;-77
2022/11/25 03:10:43;;;;;;;;;;;3.70;90.30;;;;;;5025803;28;19924;-76
2022/11/25 03:13:08;;;;;;;;;;;3.80;90.30;;;;;;5017536;28;19921;-76
2022/11/25 03:15:34;;;;;;;;;;;3.70;90.20;;;;;;5031632;28;19962;-75
2022/11/25 03:17:59;;;;;;;;;;;3.70;90.20;;;;;;5024851;28;19925;-77
2022/11/25 03:20:25;;;;;;;;;;;3.80;90.30;;;;;;5028033;28;20503;-76
2022/11/25 03:22:50;;;;;;;;;;;3.80;90.30;;;;;;5025394;28;19921;-76
2022/11/25 03:25:16;;;;;;;;;;;3.80;90.30;;;;;;5029173;28;20683;-76
2022/11/25 03:27:41;;;;;;;;;;;3.80;90.30;;;;;;5033405;28;19925;-76
2022/11/25 03:30:08;;;;;;;;;;;3.80;90.30;;;;;;5030183;28;19928;-75
2022/11/25 03:32:34;;;;;;;;;;;3.80;90.30;;;;;;5025601;28;19971;-75
2022/11/25 03:34:59;;;;;;;;;;;3.70;90.20;;;;;;5030458;28;19916;-75
2022/11/25 03:37:25;;;;;;;;;;;3.70;90.20;;;;;;5026756;28;20583;-76
2022/11/25 03:39:50;;;;;;;;;;;3.70;90.20;;;;;;5030016;28;19928;-76
2022/11/25 03:42:16;;;;;;;;;;;3.70;90.20;;;;;;5018616;28;20389;-76
2022/11/25 03:44:41;;;;;;;;;;;3.70;90.20;;;;;;5029658;28;19921;-76
2022/11/25 03:47:07;;;;;;;;;;;3.70;90.20;;;;;;5032704;28;19905;-76
2022/11/25 03:49:32;;;;;;;;;;;3.70;90.20;;;;;;5020753;28;20008;-76
2022/11/25 03:51:58;;;;;;;;;;;3.70;90.20;;;;;;5027146;28;20130;-76
2022/11/25 03:54:23;;;;;;;;;;;3.60;90.20;;;;;;5024563;28;19922;-76
2022/11/25 03:56:49;;;;;;;;;;;3.60;90.30;;;;;;5026768;28;20001;-77
2022/11/25 03:59:14;;;;;;;;;;;3.60;90.30;;;;;;5037793;28;19936;-76
2022/11/25 04:01:39;;;;;;;;;;;3.60;90.30;;;;;;5023958;28;19949;-76
2022/11/25 04:04:05;;;;;;;;;;;3.60;90.30;;;;;;5031980;28;20012;-76
2022/11/25 04:06:31;;;;;;;;;;;3.70;90.30;;;;;;5034247;28;19967;-76
2022/11/25 04:08:56;;;;;;;;;;;3.70;90.30;;;;;;5027299;28;19921;-76
2022/11/25 04:12:45;;;;;;;;;;;3.70;90.30;;;;;;5023444;28;19921;-76
2022/11/25 04:14:07;;;;;;;;;;;3.70;90.30;;;;;;5048857;28;20006;-76
2022/11/25 04:16:33;;;;;;;;;;;3.70;90.30;;;;;;5023669;28;19921;-76
2022/11/25 04:18:58;;;;;;;;;;;3.70;90.30;;;;;;5006868;28;19927;-77
2022/11/25 04:21:24;;;;;;;;;;;3.70;90.30;;;;;;5026255;28;20597;-76
2022/11/25 04:23:49;;;;;;;;;;;3.70;90.30;;;;;;5051562;28;19996;-76
2022/11/25 04:26:14;;;;;;;;;;;3.60;90.20;;;;;;5048489;28;19917;-76
2022/11/25 04:28:40;;;;;;;;;;;3.60;90.20;;;;;;5034658;28;20420;-74
2022/11/25 04:31:06;;;;;;;;;;;3.60;90.30;;;;;;5037066;28;19921;-75
2022/11/25 04:33:31;;;;;;;;;;;3.60;90.20;;;;;;5031929;28;19982;-75
2022/11/25 04:35:57;;;;;;;;;;;3.60;90.30;;;;;;5018974;28;20580;-74
2022/11/25 04:38:22;;;;;;;;;;;3.60;90.30;;;;;;5054158;28;19921;-76
2022/11/25 04:40:48;;;;;;;;;;;3.60;90.30;;;;;;5030336;28;19975;-75
2022/11/25 04:43:13;;;;;;;;;;;3.60;90.30;;;;;;5056627;28;19994;-75
2022/11/25 04:45:39;;;;;;;;;;;3.60;90.30;;;;;;5032150;28;19948;-76
2022/11/25 04:48:04;;;;;;;;;;;3.60;90.20;;;;;;5010790;28;19932;-75
2022/11/25 04:50:30;;;;;;;;;;;3.60;90.20;;;;;;5029178;28;19921;-75
2022/11/25 04:52:55;;;;;;;;;;;3.50;90.20;;;;;;5011246;28;19925;-75
2022/11/25 04:55:21;;;;;;;;;;;3.50;90.20;;;;;;5050467;28;19992;-76
2022/11/25 04:57:46;;;;;;;;;;;3.50;90.20;;;;;;5020142;28;19927;-75
2022/11/25 05:00:12;;;;;;;;;;;3.50;90.20;;;;;;5033516;28;20551;-75
2022/11/25 05:02:38;;;;;;;;;;;3.50;90.30;;;;;;5020218;28;19958;-75
2022/11/25 05:05:03;;;;;;;;;;;3.50;90.30;;;;;;5017275;28;19920;-76
2022/11/25 05:07:29;;;;;;;;;;;3.50;90.30;;;;;;5016905;28;19930;-75
2022/11/25 05:09:55;;;;;;;;;;;3.50;90.30;;;;;;5069475;28;19924;-75
2022/11/25 05:12:21;;;;;;;;;;;3.60;90.30;;;;;;5014995;28;20078;-75
2022/11/25 05:14:47;;;;;;;;;;;3.60;90.30;;;;;;5019556;28;19921;-76
2022/11/25 05:17:13;;;;;;;;;;;3.60;90.30;;;;;;5035470;28;21343;-74
2022/11/25 05:19:39;;;;;;;;;;;3.60;90.30;;;;;;5033133;28;19923;-75
2022/11/25 05:22:04;;;;;;;;;;;3.60;90.30;;;;;;5067733;28;19924;-75
2022/11/25 05:24:29;;;;;;;;;;;3.60;90.30;;;;;;5039295;28;19944;-76
2022/11/25 05:26:55;;;;;;;;;;;3.60;90.30;;;;;;5050767;28;19923;-74
2022/11/25 05:29:20;;;;;;;;;;;3.60;90.30;;;;;;5012868;28;19921;-74
2022/11/25 05:31:46;;;;;;;;;;;3.60;90.30;;;;;;5017988;28;19948;-75
2022/11/25 05:34:11;;;;;;;;;;;3.60;90.30;;;;;;5026629;28;20594;-74
2022/11/25 05:36:37;;;;;;;;;;;3.60;90.30;;;;;;5031440;28;20556;-75
2022/11/25 05:39:02;;;;;;;;;;;3.60;90.30;;;;;;5016592;28;19966;-74
2022/11/25 05:41:28;;;;;;;;;;;3.60;90.30;;;;;;5019058;28;20759;-75
2022/11/25 05:43:53;;;;;;;;;;;3.60;90.30;;;;;;5059171;28;20317;-74
2022/11/25 05:46:19;;;;;;;;;;;3.60;90.30;;;;;;5065520;28;19928;-75
2022/11/25 05:48:44;;;;;;;;;;;3.60;90.30;;;;;;5027675;28;20130;-74
2022/11/25 05:51:10;;;;;;;;;;;3.60;90.30;;;;;;5037770;28;19912;-74
2022/11/25 05:53:35;;;;;;;;;;;3.60;90.30;;;;;;5018506;28;19925;-75
2022/11/25 05:56:01;;;;;;;;;;;3.50;90.30;;;;;;5046776;28;20003;-75
2022/11/25 05:58:27;;;;;;;;;;;3.60;90.30;;;;;;5029563;28;19925;-75
2022/11/25 06:00:53;;;;;;;;;;;3.60;90.30;;;;;;5028118;28;20387;-75
2022/11/25 06:03:19;;;;;;;;;;;3.50;90.30;;;;;;5031581;28;20410;-74
2022/11/25 06:05:44;;;;;;;;;;;3.60;90.30;;;;;;5032718;28;20004;-74
2022/11/25 06:08:10;;;;;;;;;;;3.50;90.30;;;;;;5028205;28;20671;-74
2022/11/25 06:10:39;;;;;;;;;;;3.60;90.30;;;;;;5039057;28;20027;-74
2022/11/25 06:13:05;;;;;;;;;;;3.60;90.30;;;;;;5017044;28;19935;-75
2022/11/25 06:15:30;;;;;;;;;;;3.50;90.30;;;;;;5024499;28;19925;-74
2022/11/25 06:17:56;;;;;;;;;;;3.60;90.30;;;;;;5004480;28;20000;-75
2022/11/25 06:20:21;;;;;;;;;;;3.60;90.30;;;;;;5023021;28;19917;-74
2022/11/25 06:22:47;;;;;;;;;;;3.60;90.30;;;;;;5019107;28;19925;-75
2022/11/25 06:25:12;;;;;;;;;;;3.60;90.30;;;;;;5054609;28;19937;-75
2022/11/25 06:27:38;;;;;;;;;;;3.60;90.30;;;;;;5019138;28;19921;-75
2022/11/25 06:30:03;;;;;;;;;;;3.50;90.30;;;;;;5019291;28;20300;-75
2022/11/25 06:32:29;;;;;;;;;;;3.50;90.30;;;;;;5038824;28;19920;-75
2022/11/25 06:34:54;;;;;;;;;;;3.50;90.30;;;;;;5019384;28;19917;-75
2022/11/25 06:37:20;;;;;;;;;;;3.50;90.30;;;;;;5017394;28;20380;-74
2022/11/25 06:39:45;;;;;;;;;;;3.50;90.30;;;;;;5035531;28;19924;-75
2022/11/25 06:42:11;;;;;;;;;;;3.50;90.40;;;;;;5003964;28;20660;-75
2022/11/25 06:44:36;;;;;;;;;;;3.50;90.30;;;;;;5006320;28;19927;-74
2022/11/25 06:47:02;;;;;;;;;;;3.60;90.40;;;;;;5027009;28;19916;-74
2022/11/25 06:49:28;;;;;;;;;;;3.50;90.30;;;;;;5016962;28;19921;-74
2022/11/25 06:51:53;;;;;;;;;;;3.50;90.30;;;;;;5012875;28;19975;-74
2022/11/25 06:54:19;;;;;;;;;;;3.60;90.70;;;;;;5026459;28;19921;-76
2022/11/25 06:56:50;;;;;;;;;;;3.60;90.30;;;;;;5030972;28;19917;-74
2022/11/25 06:59:16;;;;;;;;;;;3.60;90.30;;;;;;5049462;28;19927;-74
2022/11/25 07:01:41;;;;;;;;;;;3.60;90.30;;;;;;5030254;28;19998;-74
2022/11/25 07:04:07;;;;;;;;;;;3.60;90.30;;;;;;5029466;28;19928;-76
2022/11/25 07:06:32;;;;;;;;;;;3.50;90.30;;;;;;5036224;28;19916;-75
2022/11/25 07:08:58;;;;;;;;;;;3.60;90.30;;;;;;5046444;28;19916;-75
2022/11/25 07:11:27;;;;;;;;;;;3.60;90.30;;;;;;5026968;28;19923;-74
2022/11/25 07:13:54;;;;;;;;;;;3.60;90.30;;;;;;4987983;28;1773962;-74
2022/11/25 07:16:19;;;;;;;;;;;3.60;90.40;;;;;;5065280;28;19920;-75
2022/11/25 07:18:45;;;;;;;;;;;3.60;90.30;;;;;;5029927;28;19917;-74
2022/11/25 07:21:14;;;;;;;;;;;3.60;90.30;;;;;;5029221;28;20011;-74
2022/11/25 07:23:39;;;;;;;;;;;3.60;90.30;;;;;;5051918;28;19966;-75
2022/11/25 07:26:24;;;;;;;;;;;3.60;90.30;;;;;;5055936;28;20106;-74
2022/11/25 07:28:50;;;;;;;;;;;3.60;90.30;;;;;;5047975;28;20737;-74
2022/11/25 07:31:16;;;;;;;;;;;3.60;90.30;;;;;;5048440;28;19952;-74
2022/11/25 07:33:42;;;;;;;;;;;3.60;90.30;;;;;;5016053;28;20492;-74
2022/11/25 07:36:08;;;;;;;;;;;3.60;90.30;;;;;;5030675;28;19931;-75
2022/11/25 07:38:33;;;;;;;;;;;3.60;90.30;;;;;;5064658;28;19993;-74
2022/11/25 07:41:06;;;;;;;;;;;3.60;90.30;;;;;;5049683;28;19947;-74
2022/11/25 07:43:31;;;;;;;;;;;3.60;90.30;;;;;;5027807;28;19984;-74
2022/11/25 07:46:07;;;;;;;;;;;3.60;90.30;;;;;;5041091;28;19956;-75
2022/11/25 07:48:32;;;;;;;;;;;3.60;90.30;;;;;;5024061;28;19964;-75
2022/11/25 07:50:57;;;;;;;;;;;3.60;90.40;;;;;;5028089;28;19951;-75
2022/11/25 07:53:23;;;;;;;;;;;3.60;90.40;;;;;;5047226;28;19921;-76
2022/11/25 07:55:48;;;;;;;;;;;3.60;90.40;;;;;;5011604;28;20292;-76
2022/11/25 07:58:14;;;;;;;;;;;3.60;90.30;;;;;;5048641;28;19923;-74
2022/11/25 08:00:39;;;;;;;;;;;3.70;90.40;;;;;;5034002;28;19916;-74
2022/11/25 08:03:05;;;;;;;;;;;3.60;90.30;;;;;;5066165;28;19923;-74
2022/11/25 08:05:31;;;;;;;;;;;3.70;90.40;;;;;;5037266;28;20540;-75
2022/11/25 08:07:56;;;;;;;;;;;3.70;90.40;;;;;;5033768;28;19925;-75
2022/11/25 08:10:22;;;;;;;;;;;3.70;90.40;;;;;;5053105;28;19917;-74
2022/11/25 08:12:47;;;;;;;;;;;3.70;90.40;;;;;;5040724;28;19926;-74
2022/11/25 08:15:13;;;;;;;;;;;3.70;90.40;;;;;;5038597;28;20435;-75
2022/11/25 08:17:38;;;;;;;;;;;3.70;90.30;;;;;;5034216;28;19974;-74
2022/11/25 08:20:04;;;;;;;;;;;3.80;90.40;;;;;;5052205;28;20052;-75
2022/11/25 08:22:30;;;;;;;;;;;3.70;90.40;;;;;;5025399;28;20242;-76
2022/11/25 08:24:55;;;;;;;;;;;3.70;90.40;;;;;;5066187;28;20020;-75
2022/11/25 08:27:20;;;;;;;;;;;3.80;90.40;;;;;;5051698;28;19921;-74
2022/11/25 08:29:46;;;;;;;;;;;3.80;90.40;;;;;;5033374;28;19921;-75
2022/11/25 08:32:11;;;;;;;;;;;3.80;90.40;;;;;;5026314;28;20039;-74
2022/11/25 08:34:37;;;;;;;;;;;3.80;90.40;;;;;;5036663;28;19917;-75
2022/11/25 08:37:02;;;;;;;;;;;3.80;90.40;;;;;;5036906;28;19931;-75
2022/11/25 08:39:29;;;;;;;;;;;3.80;90.40;;;;;;5028338;28;19924;-77
2022/11/25 08:41:54;;;;;;;;;;;3.80;90.40;;;;;;5064491;28;19927;-75
2022/11/25 08:44:19;;;;;;;;;;;3.80;90.40;;;;;;5052308;28;20333;-75
2022/11/25 08:46:45;;;;;;;;;;;3.90;90.40;;;;;;5033487;28;19920;-75
2022/11/25 08:49:10;;;;;;;;;;;3.90;90.30;;;;;;5040177;28;19920;-74
2022/11/25 08:51:36;;;;;;;;;;;3.90;90.30;;;;;;5033064;28;19950;-75
2022/11/25 08:54:03;;;;;;;;;;;3.90;90.30;;;;;;5033923;28;19927;-75
2022/11/25 08:56:28;;;;;;;;;;;3.90;90.30;;;;;;5026690;28;19955;-75
2022/11/25 08:58:54;;;;;;;;;;;4.00;90.40;;;;;;5017783;28;19964;-74
2022/11/25 09:01:20;;;;;;;;;;;4.00;90.40;;;;;;5027085;28;19917;-74
2022/11/25 09:03:46;;;;;;;;;;;4.00;90.40;;;;;;5064259;28;19971;-74
2022/11/25 09:06:12;;;;;;;;;;;4.00;90.30;;;;;;5030512;28;19920;-76
2022/11/25 09:08:38;;;;;;;;;;;4.00;90.30;;;;;;5051671;28;19924;-73
2022/11/25 09:11:04;;;;;;;;;;;4.10;90.30;;;;;;5017367;28;20293;-75
2022/11/25 09:13:29;;;;;;;;;;;4.10;90.30;;;;;;5030449;28;19933;-75
2022/11/25 09:15:55;;;;;;;;;;;4.10;90.30;;;;;;5030640;28;19917;-75
2022/11/25 09:18:24;;;;;;;;;;;4.20;90.30;;;;;;5025196;28;19929;-75
2022/11/25 09:20:50;;;;;;;;;;;4.20;90.30;;;;;;5027432;28;19917;-75
2022/11/25 09:23:16;;;;;;;;;;;4.20;90.30;;;;;;5027014;28;19928;-75
2022/11/25 09:25:41;;;;;;;;;;;4.20;90.30;;;;;;5031048;28;19932;-74
2022/11/25 09:28:08;;;;;;;;;;;4.30;90.30;;;;;;5040112;28;19914;-75
2022/11/25 09:30:33;;;;;;;;;;;4.30;90.30;;;;;;5036100;28;19928;-74
2022/11/25 09:32:59;;;;;;;;;;;4.30;90.30;;;;;;5035799;28;19928;-75
2022/11/25 09:35:24;;;;;;;;;;;4.30;90.30;;;;;;5025615;28;20340;-75
2022/11/25 09:37:50;;;;;;;;;;;4.30;90.30;;;;;;5023029;28;19920;-75
2022/11/25 09:40:41;;;;;;;;;;;4.40;90.30;;;;;;5033989;28;19931;-74
2022/11/25 09:49:14;;;;;;;;;;;4.40;90.30;;;;;;5034936;28;19928;-76
2022/11/25 09:51:50;;;;;;;;;;;4.40;90.30;;;;;;5026630;28;19921;-76
2022/11/25 09:54:23;;;;;;;;;;;4.50;90.30;;;;;;5034929;28;19917;-75
2022/11/25 09:56:50;;;;;;;;;;;4.40;90.20;;;;;;5029993;28;19961;-76
2022/11/25 09:59:30;;;;;;;;;;;4.50;90.30;;;;;;5038178;28;19976;-76
2022/11/25 10:02:02;;;;;;;;;;;4.50;90.30;;;;;;5030616;28;20072;-76
2022/11/25 10:04:38;;;;;;;;;;;4.50;90.30;;;;;;5026892;28;19955;-75
2022/11/25 10:07:04;;;;;;;;;;;4.50;90.30;;;;;;5028582;28;19917;-76
2022/11/25 10:09:31;;;;;;;;;;;4.50;90.20;;;;;;5037759;28;21160;-75
2022/11/25 10:12:04;;;;;;;;;;;4.60;90.20;;;;;;5020384;28;19917;-75
2022/11/25 10:14:44;;;;;;;;;;;4.60;90.20;;;;;;5029046;28;21426;-75
2022/11/25 10:17:09;;;;;;;;;;;4.50;90.20;;;;;;5054046;28;19925;-75
2022/11/25 10:19:53;;;;;;;;;;;4.50;90.20;;;;;;5037780;28;19925;-76
2022/11/25 10:22:23;;;;;;;;;;;4.60;90.20;;;;;;5032452;28;19913;-76
2022/11/25 10:24:48;;;;;;;;;;;4.60;90.20;;;;;;5030531;28;19952;-75
2022/11/25 10:27:16;;;;;;;;;;;4.60;90.20;;;;;;5035995;28;19917;-76
2022/11/25 10:29:42;;;;;;;;;;;4.70;90.30;;;;;;5035503;28;19929;-76
2022/11/25 10:32:18;;;;;;;;;;;4.70;90.30;;;;;;5035430;28;19925;-75
2022/11/25 10:34:49;;;;;;;;;;;4.70;90.20;;;;;;5033564;28;19975;-76
2022/11/25 10:37:18;;;;;;;;;;;4.70;90.20;;;;;;5038740;28;19985;-76
2022/11/25 10:39:43;;;;;;;;;;;4.70;90.20;;;;;;5033709;28;19921;-76
2022/11/25 10:42:22;;;;;;;;;;;4.80;90.20;;;;;;5039092;28;20017;-75
2022/11/25 10:44:47;;;;;;;;;;;4.80;90.20;;;;;;5034762;28;19925;-75
2022/11/25 10:47:32;;;;;;;;;;;4.80;90.20;;;;;;5020071;28;19928;-76
2022/11/25 10:50:12;;;;;;;;;;;4.80;90.20;;;;;;5034872;28;19994;-75
2022/11/25 10:52:44;;;;;;;;;;;4.80;90.20;;;;;;5030158;28;19939;-75
2022/11/25 10:55:13;;;;;;;;;;;4.90;90.20;;;;;;5037846;28;19957;-76
2022/11/25 10:57:38;;;;;;;;;;;4.90;90.20;;;;;;5028131;28;19913;-75
2022/11/25 11:00:04;;;;;;;;;;;4.90;90.10;;;;;;5041105;28;20386;-75
2022/11/25 11:02:36;;;;;;;;;;;5.00;90.20;;;;;;5038231;28;19925;-77
2022/11/25 11:05:02;;;;;;;;;;;5.00;90.20;;;;;;5032880;28;19925;-76
2022/11/25 11:07:29;;;;;;;;;;;5.00;90.20;;;;;;5029625;28;19924;-76
2022/11/25 11:09:58;;;;;;;;;;;5.00;90.10;;;;;;5035243;28;19947;-77
2022/11/25 11:12:24;;;;;;;;;;;5.10;90.10;;;;;;5015807;28;19925;-75
2022/11/25 11:14:51;;;;;;;;;;;5.10;90.10;;;;;;5039462;28;19925;-76
2022/11/25 11:17:21;;;;;;;;;;;5.10;90.10;;;;;;5035535;28;20020;-76
2022/11/25 11:19:58;;;;;;;;;;;5.10;90.10;;;;;;5026142;28;19913;-76
2022/11/25 11:22:24;;;;;;;;;;;5.20;90.10;;;;;;5034278;28;19975;-76
2022/11/25 11:24:49;;;;;;;;;;;5.20;90.10;;;;;;5013049;28;19924;-75
2022/11/25 11:27:22;;;;;;;;;;;5.20;90.10;;;;;;5030757;28;19997;-77
2022/11/25 11:29:47;;;;;;;;;;;5.20;90.10;;;;;;5028156;28;19952;-76
2022/11/25 11:32:22;;;;;;;;;;;5.30;90.10;;;;;;5049515;28;20296;-75
2022/11/25 11:34:54;;;;;;;;;;;5.30;90.10;;;;;;5040697;28;19913;-75
2022/11/25 11:37:22;;;;;;;;;;;5.30;90.10;;;;;;5028423;28;20018;-76
2022/11/25 11:39:58;;;;;;;;;;;5.40;90.10;;;;;;5014356;28;19917;-76
2022/11/25 11:42:28;;;;;;;;;;;5.40;90.10;;;;;;5031186;28;19983;-77
2022/11/25 11:44:57;;;;;;;;;;;5.50;90.10;;;;;;5033080;28;19927;-77
2022/11/25 11:47:25;;;;;;;;;;;5.50;90.10;;;;;;5030834;28;19917;-76
2022/11/25 11:50:11;;;;;;;;;;;5.50;90.10;;;;;;5025100;28;19924;-77
2022/11/25 11:52:59;;;;;;;;;;;5.50;90.00;;;;;;5024334;28;20017;-76
2022/11/25 11:55:51;;;;;;;;;;;5.60;90.00;;;;;;5024560;28;19920;-76
2022/11/25 11:58:16;;;;;;;;;;;5.60;90.00;;;;;;5018644;28;20566;-76
2022/11/25 12:01:08;;;;;;;;;;;5.60;90.00;;;;;;5030347;28;19921;-76
2022/11/25 12:03:35;;;;;;;;;;;5.60;90.00;;;;;;5013880;28;19967;-75
2022/11/25 12:06:00;;;;;;;;;;;5.70;90.00;;;;;;5031314;28;19974;-75
2022/11/25 12:08:44;;;;;;;;;;;5.70;90.00;;;;;;5033465;28;19953;-76
2022/11/25 12:11:10;;;;;;;;;;;5.80;90.00;;;;;;5027918;28;20280;-77
2022/11/25 12:13:41;;;;;;;;;;;5.80;90.00;;;;;;5030596;28;19929;-75
2022/11/25 12:16:10;;;;;;;;;;;5.90;90.00;;;;;;5031536;28;20389;-76
2022/11/25 12:18:36;;;;;;;;;;;5.90;90.00;;;;;;5066397;28;19963;-77
2022/11/25 12:21:02;;;;;;;;;;;5.90;90.00;;;;;;5044374;28;19921;-76
2022/11/25 12:23:43;;;;;;;;;;;6.00;90.00;;;;;;5028970;28;19972;-76
2022/11/25 12:26:13;;;;;;;;;;;6.00;90.00;;;;;;5035826;28;19925;-74
2022/11/25 12:28:42;;;;;;;;;;;6.00;89.90;;;;;;5035565;28;19974;-77
2022/11/25 12:31:34;;;;;;;;;;;6.00;89.80;;;;;;5024583;28;19924;-75
2022/11/25 12:34:00;;;;;;;;;;;6.10;89.90;;;;;;5033430;28;19979;-75
2022/11/25 12:36:27;;;;;;;;;;;6.10;89.80;;;;;;5040279;28;19913;-76
2022/11/25 12:38:59;;;;;;;;;;;6.10;89.80;;;;;;5029025;28;19987;-75
2022/11/25 12:41:31;;;;;;;;;;;6.10;89.80;;;;;;5030619;28;19979;-75
2022/11/25 12:44:02;;;;;;;;;;;6.10;89.80;;;;;;5030505;28;19918;-75
2022/11/25 12:46:27;;;;;;;;;;;6.10;89.80;;;;;;5030075;28;19921;-73
2022/11/25 12:48:55;;;;;;;;;;;6.20;89.80;;;;;;5046304;28;19917;-73
2022/11/25 12:51:23;;;;;;;;;;;6.20;89.80;;;;;;5044152;28;19933;-76
2022/11/25 12:53:53;;;;;;;;;;;6.20;89.80;;;;;;5035389;28;19924;-73
2022/11/25 12:56:21;;;;;;;;;;;6.20;89.80;;;;;;5021248;28;19921;-77
2022/11/25 12:59:04;;;;;;;;;;;6.20;89.70;;;;;;5031390;28;20015;-76
2022/11/25 13:01:48;;;;;;;;;;;6.20;89.80;;;;;;5036781;28;19924;-77
2022/11/25 13:04:32;;;;;;;;;;;6.20;89.80;;;;;;5031595;28;20448;-74
2022/11/25 13:06:58;;;;;;;;;;;6.20;89.80;;;;;;5030381;28;19928;-77
2022/11/25 13:09:59;;;;;;;;;;;6.20;89.80;;;;;;5041103;28;19917;-77
2022/11/25 13:12:43;;;;;;;;;;;6.20;89.70;;;;;;4987937;28;19953;-76
2022/11/25 13:15:19;;;;;;;;;;;6.20;89.80;;;;;;4988919;28;20001;-75
2022/11/25 13:17:44;;;;;;;;;;;6.20;89.80;;;;;;5005889;28;19918;-76
2022/11/25 13:20:28;;;;;;;;;;;6.20;89.70;;;;;;5001297;28;19922;-74
2022/11/25 13:23:13;;;;;;;;;;;6.20;89.60;;;;;;4985819;28;19922;-75
2022/11/25 13:25:40;;;;;;;;;;;6.30;89.70;;;;;;4966284;28;19922;-75
2022/11/25 13:28:24;;;;;;;;;;;6.30;89.70;;;;;;4990288;28;19926;-76
2022/11/25 13:30:50;;;;;;;;;;;6.30;89.60;;;;;;4986642;28;19909;-75
2022/11/25 13:33:16;;;;;;;;;;;6.30;89.60;;;;;;4975295;28;20179;-77
2022/11/25 13:35:41;;;;;;;;;;;6.40;89.70;;;;;;4988746;28;19922;-76
2022/11/25 13:38:07;;;;;;;;;;;6.40;89.60;;;;;;4973754;28;20138;-76
2022/11/25 13:40:34;;;;;;;;;;;6.40;89.60;;;;;;4981669;28;20454;-75
2022/11/25 13:43:00;;;;;;;;;;;6.50;89.60;;;;;;4974010;28;19926;-76
2022/11/25 13:45:29;;;;;;;;;;;6.50;89.60;;;;;;5000846;28;19956;-77
2022/11/25 13:47:55;;;;;;;;;;;6.50;89.60;;;;;;5022921;28;19917;-75
2022/11/25 13:50:21;;;;;;;;;;;6.50;89.60;;;;;;5027168;28;19957;-76
2022/11/25 13:52:47;;;;;;;;;;;6.50;89.50;;;;;;5027098;28;20192;-76
2022/11/25 13:55:16;;;;;;;;;;;6.50;89.50;;;;;;5031422;28;19917;-77
2022/11/25 13:57:44;;;;;;;;;;;6.50;89.50;;;;;;5026019;28;20025;-76
2022/11/25 14:00:13;;;;;;;;;;;6.60;89.50;;;;;;5025169;28;20001;-76
2022/11/25 14:02:43;;;;;;;;;;;6.50;89.50;;;;;;5040093;28;19925;-76
2022/11/25 14:05:11;;;;;;;;;;;6.60;89.50;;;;;;5021398;28;19925;-75
2022/11/25 14:07:56;;;;;;;;;;;6.60;89.50;;;;;;5025371;28;19925;-75
2022/11/25 14:10:36;;;;;;;;;;;6.60;89.50;;;;;;5033227;28;19905;-76
2022/11/25 14:13:17;;;;;;;;;;;6.60;89.40;;;;;;5034566;28;19964;-76
2022/11/25 14:15:48;;;;;;;;;;;6.60;89.50;;;;;;5034017;28;20004;-76
2022/11/25 14:18:16;;;;;;;;;;;6.60;89.40;;;;;;5031828;28;19931;-75
2022/11/25 14:20:53;;;;;;;;;;;6.60;89.40;;;;;;5041542;28;19984;-75
2022/11/25 14:23:40;;;;;;;;;;;6.60;89.40;;;;;;5029344;28;19917;-77
2022/11/25 14:26:10;;;;;;;;;;;6.60;89.60;;;;;;5023496;28;20016;-75
2022/11/25 14:28:46;;;;;;;;;;;6.60;89.50;;;;;;5061978;28;19921;-74
2022/11/25 14:31:15;;;;;;;;;;;6.60;89.40;;;;;;5024805;28;19925;-75
2022/11/25 14:33:43;;;;;;;;;;;6.60;89.50;;;;;;5014019;28;19925;-75
2022/11/25 14:36:11;;;;;;;;;;;6.60;89.40;;;;;;5027086;28;19928;-75
2022/11/25 14:38:42;;;;;;;;;;;6.60;89.40;;;;;;5032799;28;19921;-76
2022/11/25 14:41:22;;;;;;;;;;;6.60;90.00;;;;;;5025462;28;19964;-75
2022/11/25 14:43:50;;;;;;;;;;;6.70;89.40;;;;;;5017243;28;19925;-76
2022/11/25 14:46:20;;;;;;;;;;;6.60;89.40;;;;;;5018424;28;19939;-76
2022/11/25 14:48:51;;;;;;;;;;;6.70;89.50;;;;;;5026846;28;19914;-75